UIBB

Bratsk Airport

Bratsk, Russian Federation
TAF UIBB 210500Z 2106/2206 15003MPS 9999 SCT020CB PROB40 TEMPO 2106/2112 -TSRA
Issued Valid From Valid To
Aug-21 @ 05:00 UTC
(13 hours ago)
Aug-21 @ 06:00 UTC
(12 hours ago)
Aug-22 @ 06:00 UTC
(in 12 hours)
Aug-21 @ 06:00 to Aug-22 @ 06:00
TAF UIBB 210500Z 2106/2206 15003MPS 9999 SCT020CB
Wind Visibility Clouds
150° at 6 knots 10,000+ meters
  • Scattered at 2,000' AGL
Expired Click to View Aug-21 @ 06:00 to Aug-21 @ 12:00
PROB40 TEMPO 2106/2112 -TSRA
Conditions
  • Light Thunderstorm
  • Light Rain
TAF UIBB 210500Z 2106/2206 15003MPS 9999 SCT020CB PROB40 TEMPO 2106/2112 -TSRA
Issued Aug-21 @ 05:00 UTC
(13 hours ago)
Valid From Aug-21 @ 06:00 UTC
(12 hours ago)
Valid To Aug-22 @ 06:00 UTC
(in 12 hours)
Aug-21 @ 06:00 - Aug-22 @ 06:00
Wind Visibility
150° at 6 knots 10,000+ meters
Clouds
  • Scattered at 2,000' AGL
Aug-21 @ 06:00 - Aug-21 @ 12:00
Conditions
  • Light Thunderstorm
  • Light Rain